Time;durP1;ratioP1;P1;durP2;ratioP2;P2;SDS_P1;SDS_P2;PMS_P1;PMS_P2;Temp;Humidity;BMP_temperature;BMP_pressure;BME280_temperature;BME280_humidity;BME280_pressure;Samples;Min_cycle;Max_cycle;Signal;HPM_P1;HPM_P2
2021/04/26 00:00:25;;;;;;;16.38;9.45;;;5.60;99.90;;;;;;5032728;28;20540;-64
2021/04/26 00:02:51;;;;;;;;;;;5.60;99.90;;;;;;5032163;28;20022;-63
2021/04/26 00:05:17;;;;;;;15.80;8.63;;;5.60;99.90;;;;;;5032850;28;19911;-64
2021/04/26 00:07:44;;;;;;;20.55;9.30;;;5.50;99.90;;;;;;5032932;28;20021;-64
2021/04/26 00:10:10;;;;;;;21.10;11.07;;;5.50;99.90;;;;;;5032779;28;20490;-64
2021/04/26 00:12:36;;;;;;;16.73;9.20;;;5.50;99.90;;;;;;5033045;28;20374;-63
2021/04/26 00:15:06;;;;;;;20.40;10.88;;;5.50;99.90;;;;;;5031662;28;20018;-63
2021/04/26 00:17:31;;;;;;;16.17;9.07;;;5.50;99.90;;;;;;5032745;28;20128;-64
2021/04/26 00:19:57;;;;;;;16.15;9.38;;;5.40;99.90;;;;;;5031257;28;20033;-63
2021/04/26 00:22:22;;;;;;;15.63;8.63;;;5.40;99.90;;;;;;5031534;28;20036;-64
2021/04/26 00:24:48;;;;;;;16.67;9.43;;;5.40;99.90;;;;;;5031626;28;20120;-63
2021/04/26 00:27:13;;;;;;;18.42;9.25;;;5.30;99.90;;;;;;5032731;28;20028;-64
2021/04/26 00:29:39;;;;;;;15.35;8.30;;;5.30;99.90;;;;;;5052522;23;20101;-66
2021/04/26 00:32:05;;;;;;;16.98;9.38;;;5.30;99.90;;;;;;5066358;28;20396;-65
2021/04/26 00:34:30;;;;;;;17.42;8.85;;;5.20;99.90;;;;;;5051194;28;20382;-65
2021/04/26 00:36:57;;;;;;;16.40;9.00;;;5.20;99.90;;;;;;5066466;28;20025;-65
2021/04/26 00:39:22;;;;;;;15.88;9.05;;;5.20;99.90;;;;;;5060457;28;20029;-65
2021/04/26 00:41:48;;;;;;;15.52;8.20;;;5.10;99.90;;;;;;5030022;28;20489;-66
2021/04/26 00:44:13;;;;;;;17.20;9.35;;;5.10;99.90;;;;;;5031173;28;20108;-66
2021/04/26 00:46:39;;;;;;;17.70;8.98;;;5.10;99.90;;;;;;5031051;28;20079;-65
2021/04/26 00:49:05;;;;;;;17.73;8.90;;;5.00;99.90;;;;;;5030911;28;20028;-68
2021/04/26 00:51:30;;;;;;;16.70;9.68;;;5.00;99.90;;;;;;5031478;28;20462;-66
2021/04/26 00:53:56;;;;;;;17.25;9.35;;;4.90;99.90;;;;;;5029619;28;20460;-66
2021/04/26 00:56:22;;;;;;;17.30;8.93;;;4.80;99.90;;;;;;5029675;28;20030;-66
2021/04/26 00:58:48;;;;;;;15.57;8.27;;;4.80;99.90;;;;;;5029476;28;20098;-65
2021/04/26 01:01:17;;;;;;;16.38;9.07;;;4.70;99.90;;;;;;5030977;28;20097;-64
2021/04/26 01:03:42;;;;;;;17.50;9.85;;;4.70;99.90;;;;;;5029690;28;20021;-66
2021/04/26 01:06:08;;;;;;;15.50;8.60;;;4.70;99.90;;;;;;5029677;28;20159;-65
2021/04/26 01:08:34;;;;;;;16.70;8.30;;;4.70;99.90;;;;;;5029484;28;20053;-64
2021/04/26 01:11:00;;;;;;;16.10;8.68;;;4.80;99.90;;;;;;5030754;28;20510;-64
2021/04/26 01:13:39;;;;;;;15.30;8.15;;;4.80;99.90;;;;;;5031025;28;20478;-65
2021/04/26 01:16:15;;;;;;;16.83;8.27;;;4.80;99.90;;;;;;5029551;28;20018;-65
2021/04/26 01:18:46;;;;;;;17.40;8.45;;;4.80;99.90;;;;;;5030418;28;20029;-63
2021/04/26 01:21:42;;;;;;;15.40;8.20;;;4.70;99.90;;;;;;5030565;28;20485;-64
2021/04/26 01:24:37;;;;;;;17.10;8.18;;;4.80;99.90;;;;;;5030696;28;20036;-65
2021/04/26 01:27:34;;;;;;;15.65;8.20;;;4.70;99.90;;;;;;5030556;28;20440;-65
2021/04/26 01:30:05;;;;;;;15.23;7.85;;;4.70;99.90;;;;;;5030325;28;20469;-66
2021/04/26 01:33:08;;;;;;;17.83;8.00;;;4.70;99.90;;;;;;5030435;28;20472;-65
2021/04/26 01:35:33;;;;;;;18.90;7.93;;;4.60;99.90;;;;;;4991826;28;20704;-65
2021/04/26 01:38:18;;;;;;;17.73;7.70;;;4.70;99.90;;;;;;5037190;28;20041;-65
2021/04/26 01:40:46;;;;;;;20.65;8.27;;;4.60;99.90;;;;;;5028915;28;20029;-66
2021/04/26 01:43:15;;;;;;;17.73;8.13;;;4.50;99.90;;;;;;5030823;28;20091;-64
2021/04/26 01:45:42;;;;;;;15.80;7.78;;;4.50;99.90;;;;;;5033022;28;20397;-64
2021/04/26 01:48:08;;;;;;;16.58;7.30;;;4.40;99.90;;;;;;5034045;28;20152;-65
2021/04/26 01:50:35;;;;;;;15.70;7.45;;;4.40;99.90;;;;;;5033756;28;20525;-65
2021/04/26 01:53:01;;;;;;;16.58;7.22;;;4.30;99.90;;;;;;5034239;28;20111;-65
2021/04/26 01:55:27;;;;;;;16.20;8.10;;;4.30;99.90;;;;;;5034219;28;20079;-65
2021/04/26 01:57:56;;;;;;;15.10;7.45;;;4.30;99.90;;;;;;5032612;28;20025;-65
2021/04/26 02:00:27;;;;;;;16.20;7.75;;;4.30;99.90;;;;;;5033633;28;20033;-64
2021/04/26 02:02:53;;;;;;;16.98;7.95;;;4.30;99.90;;;;;;5033809;28;20068;-66
2021/04/26 02:05:20;;;;;;;15.15;7.45;;;4.20;99.90;;;;;;5033832;28;20037;-65
2021/04/26 02:07:49;;;;;;;16.55;7.82;;;4.20;99.90;;;;;;5032452;28;20041;-65
2021/04/26 02:10:16;;;;;;;15.43;7.93;;;4.20;99.90;;;;;;5033434;28;20029;-65
2021/04/26 02:12:43;;;;;;;15.60;7.80;;;4.20;99.90;;;;;;5033720;28;20030;-65
2021/04/26 02:15:13;;;;;;;16.48;7.45;;;4.20;99.90;;;;;;5032665;28;20060;-65
2021/04/26 02:17:40;;;;;;;18.35;8.20;;;4.20;99.90;;;;;;5032298;28;20559;-65
2021/04/26 02:20:07;;;;;;;23.00;7.80;;;4.20;99.90;;;;;;5033168;28;20037;-65
2021/04/26 02:22:33;;;;;;;15.52;7.53;;;4.10;99.90;;;;;;5032272;28;20033;-66
2021/04/26 02:24:59;;;;;;;14.32;7.15;;;4.10;99.90;;;;;;5032315;28;20385;-65
2021/04/26 02:27:25;;;;;;;15.27;7.55;;;4.10;99.90;;;;;;5032095;28;20076;-65
2021/04/26 02:29:51;;;;;;;15.82;7.57;;;4.00;99.90;;;;;;5033034;28;20034;-65
2021/04/26 02:32:24;;;;;;;15.68;7.80;;;3.90;99.90;;;;;;5033362;28;20024;-65
2021/04/26 02:34:53;;;;;;;16.05;8.25;;;4.00;99.90;;;;;;5033660;28;20022;-65
2021/04/26 02:37:42;;;;;;;44.42;26.48;;;3.90;99.90;;;;;;5031967;28;20022;-65
2021/04/26 02:40:12;;;;;;;21.45;11.73;;;3.90;99.90;;;;;;5031477;28;20026;-65
2021/04/26 02:42:40;;;;;;;33.42;21.50;;;4.00;99.90;;;;;;5033141;28;20105;-65
2021/04/26 02:45:07;;;;;;;;;;;4.00;99.90;;;;;;5033305;28;20032;-66
2021/04/26 02:47:35;;;;;;;26.23;14.43;;;4.00;99.90;;;;;;5031576;28;19909;-65
2021/04/26 02:50:04;;;;;;;22.55;10.80;;;4.00;99.90;;;;;;5031666;28;20017;-65
2021/04/26 02:52:31;;;;;;;24.85;15.30;;;4.00;99.90;;;;;;5033193;28;20029;-65
2021/04/26 02:54:58;;;;;;;23.63;11.95;;;4.00;99.90;;;;;;5031709;28;20421;-64
2021/04/26 02:57:25;;;;;;;28.27;16.47;;;4.00;99.90;;;;;;5032218;28;20388;-65
2021/04/26 02:59:52;;;;;;;23.30;12.23;;;4.00;99.90;;;;;;5032474;28;20033;-64
2021/04/26 03:02:20;;;;;;;16.88;7.82;;;4.00;99.90;;;;;;5032975;28;20076;-65
2021/04/26 03:04:46;;;;;;;17.58;8.88;;;4.00;99.90;;;;;;5032736;28;20029;-65
2021/04/26 03:07:12;;;;;;;14.77;7.07;;;4.00;99.90;;;;;;5031558;28;20030;-65
2021/04/26 03:09:38;;;;;;;16.08;8.00;;;3.90;99.90;;;;;;5032438;28;20028;-65
2021/04/26 03:12:05;;;;;;;15.75;7.55;;;3.90;99.90;;;;;;5032626;28;20021;-65
2021/04/26 03:14:31;;;;;;;16.85;8.23;;;3.80;99.90;;;;;;5032826;28;20072;-65
2021/04/26 03:16:58;;;;;;;16.27;7.70;;;3.70;99.90;;;;;;5032548;28;20036;-64
2021/04/26 03:19:25;;;;;;;15.70;7.57;;;3.70;99.90;;;;;;5030959;28;20037;-65
2021/04/26 03:21:52;;;;;;;14.90;7.22;;;3.60;99.90;;;;;;5031140;28;20075;-64
2021/04/26 03:24:19;;;;;;;17.38;7.82;;;3.60;99.90;;;;;;5032420;28;20486;-65
2021/04/26 03:26:50;;;;;;;16.45;7.80;;;3.60;99.90;;;;;;5032459;28;20033;-64
2021/04/26 03:29:20;;;;;;;14.68;7.45;;;3.60;99.90;;;;;;5030757;28;20040;-63
2021/04/26 03:31:47;;;;;;;18.83;8.18;;;3.70;99.90;;;;;;5032104;28;20071;-66
2021/04/26 03:34:13;;;;;;;17.20;7.30;;;3.60;99.90;;;;;;5030830;28;20072;-66
2021/04/26 03:36:39;;;;;;;20.98;7.65;;;3.60;99.90;;;;;;5030656;28;20419;-64
2021/04/26 03:39:08;;;;;;;16.63;7.90;;;3.50;99.90;;;;;;5031724;28;20080;-65
2021/04/26 03:41:34;;;;;;;;;;;3.50;99.90;;;;;;5032610;28;20389;-66
2021/04/26 03:43:59;;;;;;;24.77;9.45;;;3.50;99.90;;;;;;5032457;28;19964;-65
2021/04/26 03:46:25;;;;;;;16.38;8.13;;;3.50;99.90;;;;;;5032032;28;20026;-66
2021/04/26 03:48:51;;;;;;;18.90;7.60;;;3.50;99.90;;;;;;5030105;28;20032;-66
2021/04/26 03:51:16;;;;;;;21.08;8.35;;;3.40;99.90;;;;;;5030948;28;20039;-65
2021/04/26 03:53:42;;;;;;;17.52;7.55;;;3.40;99.90;;;;;;5031860;28;20023;-65
2021/04/26 03:56:07;;;;;;;14.65;7.30;;;3.40;99.90;;;;;;5030569;28;20477;-65
2021/04/26 03:58:33;;;;;;;16.25;8.00;;;3.40;99.90;;;;;;5030511;28;20034;-66
2021/04/26 04:00:59;;;;;;;15.98;7.20;;;3.40;99.90;;;;;;5030224;28;20545;-65
2021/04/26 04:03:24;;;;;;;20.00;7.90;;;3.50;99.90;;;;;;5030475;28;20061;-65
2021/04/26 04:05:50;;;;;;;16.15;7.07;;;3.40;99.90;;;;;;5031276;28;20363;-66
2021/04/26 04:08:15;;;;;;;14.75;7.63;;;3.50;99.90;;;;;;5030990;28;20018;-66
2021/04/26 04:10:41;;;;;;;18.02;7.97;;;3.40;99.90;;;;;;5031193;28;20056;-64
2021/04/26 04:13:06;;;;;;;14.68;7.38;;;3.40;99.90;;;;;;5031327;28;20021;-63
2021/04/26 04:15:32;;;;;;;15.55;7.63;;;3.40;99.90;;;;;;5031331;28;20072;-64
2021/04/26 04:17:58;;;;;;;15.73;7.40;;;3.30;99.90;;;;;;5030007;28;20464;-67
2021/04/26 04:20:24;;;;;;;16.55;8.07;;;3.30;99.90;;;;;;5031353;28;20469;-65
2021/04/26 04:22:49;;;;;;;15.77;7.20;;;3.30;99.90;;;;;;5031087;28;20112;-64
2021/04/26 04:25:15;;;;;;;18.52;7.78;;;3.40;99.90;;;;;;5029868;28;20029;-63
2021/04/26 04:27:42;;;;;;;18.60;7.43;;;3.40;99.90;;;;;;5029710;28;20030;-65
2021/04/26 04:30:11;;;;;;;16.10;7.50;;;3.40;99.90;;;;;;5030740;28;20071;-63
2021/04/26 04:32:37;;;;;;;16.40;6.90;;;3.40;99.90;;;;;;5029660;28;20025;-67
2021/04/26 04:35:04;;;;;;;16.42;6.97;;;3.40;99.90;;;;;;5029738;28;20036;-68
2021/04/26 04:37:29;;;;;;;15.50;7.20;;;3.40;99.90;;;;;;5030576;28;20056;-64
2021/04/26 04:39:55;;;;;;;17.52;8.00;;;3.40;99.90;;;;;;5030674;28;20029;-65
2021/04/26 04:42:20;;;;;;;20.92;8.68;;;3.60;99.90;;;;;;5029728;28;20029;-63
2021/04/26 04:44:47;;;;;;;18.90;8.55;;;3.70;99.90;;;;;;5028890;28;20075;-64
2021/04/26 04:47:13;;;;;;;19.13;7.88;;;4.00;99.90;;;;;;5030825;28;20470;-65
2021/04/26 04:49:38;;;;;;;17.33;8.43;;;4.20;99.90;;;;;;5030511;28;20022;-64
2021/04/26 04:52:04;;;;;;;17.02;7.95;;;4.40;99.90;;;;;;5030755;28;20024;-65
2021/04/26 04:54:30;;;;;;;17.52;7.80;;;4.50;99.90;;;;;;5029496;28;20108;-66
2021/04/26 04:56:56;;;;;;;16.77;8.10;;;4.70;99.90;;;;;;5030655;28;20426;-66
2021/04/26 04:59:22;;;;;;;20.05;9.13;;;4.70;99.90;;;;;;5028985;28;20045;-66
2021/04/26 05:01:48;;;;;;;17.05;8.80;;;4.60;99.90;;;;;;5029383;28;20022;-66
2021/04/26 05:04:13;;;;;;;18.00;8.95;;;4.50;99.90;;;;;;5029343;28;20053;-64
2021/04/26 05:06:39;;;;;;;15.85;8.48;;;4.40;99.90;;;;;;5029313;28;20087;-66
2021/04/26 05:09:06;;;;;;;17.63;8.50;;;4.30;99.90;;;;;;5028977;28;20044;-64
2021/04/26 05:11:32;;;;;;;16.45;8.60;;;4.30;99.90;;;;;;5030356;28;20187;-67
2021/04/26 05:13:59;;;;;;;17.90;8.82;;;4.30;99.90;;;;;;5030413;28;20102;-66
2021/04/26 05:16:26;;;;;;;17.45;8.95;;;4.40;99.90;;;;;;5029393;28;20492;-66
2021/04/26 05:18:52;;;;;;;18.92;9.60;;;4.40;99.90;;;;;;5030356;28;20142;-65
2021/04/26 05:21:18;;;;;;;20.05;9.80;;;4.50;99.90;;;;;;5033431;28;20065;-66
2021/04/26 05:23:43;;;;;;;18.70;9.68;;;4.50;99.90;;;;;;5034807;28;20155;-65
2021/04/26 05:26:09;;;;;;;19.02;10.10;;;4.60;99.90;;;;;;5034374;28;20033;-66
2021/04/26 05:28:34;;;;;;;19.05;9.20;;;4.60;99.90;;;;;;5034008;28;20111;-68
2021/04/26 05:31:00;;;;;;;21.65;11.38;;;4.70;99.90;;;;;;5032627;28;20034;-66
2021/04/26 05:33:26;;;;;;;32.65;18.55;;;4.70;99.90;;;;;;5033004;28;20540;-65
2021/04/26 05:35:51;;;;;;;19.30;11.00;;;4.80;99.90;;;;;;5034195;28;20466;-67
2021/04/26 05:38:18;;;;;;;24.65;13.70;;;4.80;99.90;;;;;;5034119;28;20038;-67
2021/04/26 05:40:47;;;;;;;22.48;12.93;;;4.90;99.90;;;;;;5032679;28;20048;-66
2021/04/26 05:43:14;;;;;;;22.73;11.35;;;5.00;99.90;;;;;;5033694;28;20029;-66
2021/04/26 05:45:41;;;;;;;20.27;10.10;;;5.00;99.90;;;;;;5034329;28;20097;-67
2021/04/26 05:48:07;;;;;;;22.73;11.32;;;5.10;99.90;;;;;;5032657;28;20075;-64
2021/04/26 05:50:33;;;;;;;18.05;12.05;;;5.20;99.90;;;;;;5032380;28;20032;-66
2021/04/26 05:52:59;;;;;;;16.75;10.25;;;5.30;99.90;;;;;;5033809;28;20424;-65
2021/04/26 05:55:27;;;;;;;21.65;11.55;;;5.30;99.90;;;;;;5033692;28;20026;-66
2021/04/26 05:57:53;;;;;;;21.08;10.60;;;5.40;99.90;;;;;;5032846;28;20029;-65
2021/04/26 06:00:19;;;;;;;20.83;10.02;;;5.50;99.90;;;;;;5032469;28;20148;-66
2021/04/26 06:02:45;;;;;;;20.15;9.85;;;5.50;99.90;;;;;;5033725;28;20029;-66
2021/04/26 06:05:12;;;;;;;22.08;10.50;;;5.50;99.90;;;;;;5033487;28;20033;-66
2021/04/26 06:07:37;;;;;;;18.00;10.52;;;5.50;99.90;;;;;;5033487;28;20074;-65
2021/04/26 06:10:04;;;;;;;19.95;10.07;;;5.60;99.90;;;;;;5033281;28;20370;-68
2021/04/26 06:12:30;;;;;;;19.33;10.73;;;5.60;99.90;;;;;;5032112;28;20120;-67
2021/04/26 06:14:55;;;;;;;21.17;10.07;;;5.70;99.90;;;;;;5033915;28;20068;-66
2021/04/26 06:17:21;;;;;;;19.33;10.20;;;5.80;99.90;;;;;;5032034;28;20481;-66
2021/04/26 06:19:46;;;;;;;29.08;10.20;;;5.80;99.90;;;;;;5026092;28;20049;-66
2021/04/26 06:22:12;;;;;;;23.17;10.80;;;5.80;99.90;;;;;;5032965;28;20080;-66
2021/04/26 06:24:38;;;;;;;24.80;10.95;;;5.80;99.90;;;;;;5031800;28;20030;-66
2021/04/26 06:27:04;;;;;;;22.73;10.20;;;5.90;99.90;;;;;;5033363;28;20103;-66
2021/04/26 06:31:54;;;;;;;21.02;10.52;;;6.00;99.90;;;;;;5070323;23;20135;-61
2021/04/26 06:34:20;;;;;;;18.70;10.32;;;6.00;99.90;;;;;;5052760;28;20426;-62
2021/04/26 06:36:46;;;;;;;21.25;10.30;;;6.10;99.90;;;;;;5054304;28;20100;-61
2021/04/26 06:39:11;;;;;;;19.20;10.57;;;6.20;99.90;;;;;;5054071;28;20075;-63
2021/04/26 06:41:37;;;;;;;17.63;10.20;;;6.10;99.90;;;;;;5054380;28;20362;-61
2021/04/26 06:44:04;;;;;;;18.52;10.43;;;6.10;99.90;;;;;;5047314;28;20017;-61
2021/04/26 06:46:30;;;;;;;16.20;10.48;;;6.10;99.90;;;;;;5014723;28;20668;-63
2021/04/26 06:48:55;;;;;;;22.95;10.98;;;6.30;99.90;;;;;;5014358;28;20034;-63
2021/04/26 06:51:21;;;;;;;18.42;10.27;;;6.40;99.90;;;;;;5013325;28;20103;-61
2021/04/26 06:53:46;;;;;;;19.65;10.35;;;6.50;99.90;;;;;;5036192;28;20040;-61
2021/04/26 06:56:12;;;;;;;19.38;10.70;;;6.60;99.90;;;;;;5053142;28;20029;-63
2021/04/26 06:58:38;;;;;;;22.13;10.95;;;6.70;99.90;;;;;;5054070;28;20396;-61
2021/04/26 07:01:03;;;;;;;20.33;10.50;;;6.70;99.90;;;;;;5053908;28;20029;-63
2021/04/26 07:03:29;;;;;;;19.27;10.30;;;6.80;99.90;;;;;;5054209;28;20033;-64
2021/04/26 07:05:55;;;;;;;17.85;12.02;;;6.90;99.90;;;;;;5052920;28;20075;-62
2021/04/26 07:08:22;;;;;;;20.90;11.30;;;6.90;99.90;;;;;;5043327;28;20103;-62
2021/04/26 07:10:49;;;;;;;21.30;11.05;;;7.10;99.90;;;;;;5042026;28;20392;-61
2021/04/26 07:13:14;;;;;;;20.90;10.48;;;7.10;99.90;;;;;;5043031;28;20060;-58
2021/04/26 07:15:40;;;;;;;19.65;11.23;;;7.30;99.90;;;;;;5044937;28;20045;-61
2021/04/26 07:18:06;;;;;;;19.50;11.68;;;7.30;99.90;;;;;;5043964;28;20500;-58
2021/04/26 07:20:31;;;;;;;19.00;12.13;;;7.40;99.90;;;;;;5040478;28;20025;-63
2021/04/26 07:22:57;;;;;;;22.23;13.35;;;7.50;99.90;;;;;;5042057;28;20079;-63
2021/04/26 07:25:23;;;;;;;20.67;11.38;;;;;;;;;;5041258;28;20060;-58
2021/04/26 07:27:49;;;;;;;19.20;12.40;;;;;;;;;;5043854;28;20037;-59
2021/04/26 07:30:15;;;;;;;20.77;12.60;;;;;;;;;;5042669;28;20447;-58
2021/04/26 07:32:44;;;;;;;23.65;11.80;;;;;;;;;;5041067;28;20024;-61
2021/04/26 07:35:12;;;;;;;17.52;11.65;;;;;;;;;;5033531;28;20076;-62
2021/04/26 07:37:39;;;;;;;16.95;11.50;;;;;;;;;;5033091;28;20033;-64
2021/04/26 07:40:06;;;;;;;19.73;12.23;;;;;;;;;;5031402;28;20094;-64
2021/04/26 07:42:32;;;;;;;27.90;13.60;;;7.60;99.90;;;;;;5032192;28;20637;-65
2021/04/26 07:44:57;;;;;;;20.42;13.40;;;8.30;99.90;;;;;;5032886;28;20053;-64
2021/04/26 07:47:23;;;;;;;20.42;11.60;;;8.40;99.90;;;;;;5031320;28;20033;-65
2021/04/26 07:49:48;;;;;;;22.35;12.02;;;8.50;99.90;;;;;;5032438;28;20030;-65
2021/04/26 07:52:14;;;;;;;19.77;11.93;;;8.40;99.90;;;;;;5031844;28;20025;-64
2021/04/26 07:54:40;;;;;;;22.08;11.95;;;8.40;99.90;;;;;;5037763;28;20025;-65
2021/04/26 07:57:06;;;;;;;21.60;12.00;;;;;;;;;;5052865;28;20397;-64
2021/04/26 07:59:32;;;;;;;19.25;11.50;;;;;;;;;;5051005;28;20448;-65
2021/04/26 08:01:58;;;;;;;19.52;12.05;;;;;;;;;;5052473;28;20028;-64
2021/04/26 08:04:24;;;;;;;20.33;12.13;;;;;;;;;;5051138;28;20442;-65
2021/04/26 08:06:50;;;;;;;17.77;11.77;;;;;;;;;;5051177;28;20025;-65
2021/04/26 08:09:16;;;;;;;18.00;12.05;;;;;;;;;;5052042;28;20060;-65
2021/04/26 08:11:43;;;;;;;21.30;12.45;;;;;;;;;;5051213;28;20017;-65
2021/04/26 08:14:09;;;;;;;19.80;11.73;;;;;;;;;;5052443;28;20021;-65
2021/04/26 08:16:35;;;;;;;23.63;12.10;;;;;;;;;;5051114;28;20013;-64
2021/04/26 08:19:01;;;;;;;20.83;11.95;;;;;;;;;;5050922;28;20047;-65
2021/04/26 08:21:27;;;;;;;21.73;12.10;;;;;;;;;;5042411;28;20030;-64
2021/04/26 08:23:57;;;;;;;18.15;12.10;;;;;;;;;;5043369;28;20032;-65
2021/04/26 08:26:24;;;;;;;17.45;11.95;;;;;;;;;;5052936;28;20075;-64
2021/04/26 08:28:51;;;;;;;18.85;11.88;;;;;;;;;;5050962;28;20132;-56
2021/04/26 08:31:17;;;;;;;22.77;13.00;;;;;;;;;;5052230;28;20493;-54
2021/04/26 08:33:44;;;;;;;18.50;12.85;;;;;;;;;;5052345;28;20037;-60
2021/04/26 08:36:11;;;;;;;46.67;15.13;;;;;;;;;;5052037;28;20036;-55
2021/04/26 08:38:38;;;;;;;23.63;12.13;;;;;;;;;;5052109;28;20473;-52
2021/04/26 08:41:04;;;;;;;19.02;12.95;;;;;;;;;;5042981;28;20028;-56
2021/04/26 08:43:30;;;;;;;21.15;12.75;;;;;;;;;;5045379;28;20032;-55
2021/04/26 08:46:00;;;;;;;19.90;12.35;;;8.60;99.90;;;;;;5043064;28;20084;-55
2021/04/26 08:48:27;;;;;;;20.10;13.20;;;10.30;91.70;;;;;;5044634;28;20032;-53
2021/04/26 08:50:53;;;;;;;17.77;12.20;;;10.40;93.10;;;;;;5039949;28;20087;-58
2021/04/26 08:53:19;;;;;;;17.67;12.18;;;10.60;92.80;;;;;;5040728;28;20013;-57
2021/04/26 08:55:44;;;;;;;20.75;12.65;;;10.70;90.20;;;;;;5046213;28;20033;-59
2021/04/26 08:58:10;;;;;;;19.27;12.20;;;10.80;90.50;;;;;;5051053;28;20032;-56
2021/04/26 09:00:36;;;;;;;17.10;12.45;;;10.70;85.10;;;;;;5051323;28;20428;-57
2021/04/26 09:03:06;;;;;;;21.25;11.95;;;10.30;85.30;;;;;;5051462;28;20032;-59
2021/04/26 09:05:35;;;;;;;18.15;11.60;;;10.60;86.30;;;;;;5050035;28;20029;-56
2021/04/26 09:08:03;;;;;;;17.25;11.88;;;10.70;84.40;;;;;;5050342;28;20406;-59
2021/04/26 09:10:58;;;;;;;19.00;11.93;;;10.90;83.60;;;;;;5051372;28;20021;-58
2021/04/26 09:13:27;;;;;;;16.25;11.23;;;11.10;77.80;;;;;;5052162;28;20071;-59
2021/04/26 09:16:05;;;;;;;18.20;11.90;;;11.20;76.90;;;;;;5050135;28;20035;-56
2021/04/26 09:18:44;;;;;;;16.90;11.52;;;11.00;74.20;;;;;;5051379;28;20186;-55
2021/04/26 09:21:25;;;;;;;18.70;11.35;;;11.10;74.60;;;;;;5033892;28;20025;-59
2021/04/26 09:24:13;;;;;;;20.02;12.02;;;11.00;73.40;;;;;;5031999;28;20053;-56
2021/04/26 09:26:39;;;;;;;18.15;11.60;;;11.10;75.00;;;;;;5030801;28;20512;-53
2021/04/26 09:29:20;;;;;;;17.30;12.15;;;11.10;72.90;;;;;;5030992;28;20107;-54
2021/04/26 09:32:19;;;;;;;17.15;12.05;;;11.50;76.10;;;;;;5031424;28;20039;-56
2021/04/26 09:34:52;;;;;;;16.75;12.10;;;11.60;73.60;;;;;;5019688;28;20068;-55
2021/04/26 09:37:23;;;;;;;17.10;11.40;;;11.70;72.30;;;;;;5031196;28;20021;-56
2021/04/26 09:40:01;;;;;;;17.42;12.00;;;11.70;71.90;;;;;;5029724;28;20029;-53
2021/04/26 09:42:38;;;;;;;16.03;11.37;;;11.60;71.10;;;;;;5030129;28;20025;-56
2021/04/26 09:45:25;;;;;;;16.45;11.68;;;11.70;72.80;;;;;;5029968;28;20300;-53
2021/04/26 09:48:14;;;;;;;16.38;11.40;;;11.80;72.60;;;;;;5031435;28;20029;-56
2021/04/26 09:50:48;;;;;;;;;;;12.00;71.10;;;;;;5031465;28;20022;-56
2021/04/26 09:53:14;;;;;;;16.15;11.13;;;11.70;70.70;;;;;;5031018;28;19905;-55
2021/04/26 09:55:40;;;;;;;18.75;11.55;;;11.60;68.20;;;;;;5031237;28;20032;-50
2021/04/26 09:58:06;;;;;;;16.50;11.38;;;11.60;70.20;;;;;;5031394;28;20053;-56
2021/04/26 10:00:31;;;;;;;16.70;11.00;;;11.70;69.90;;;;;;5031186;28;20508;-63
2021/04/26 10:02:58;;;;;;;16.45;11.10;;;11.90;69.10;;;;;;5030969;28;20055;-63
2021/04/26 10:05:24;;;;;;;19.38;11.82;;;12.10;71.20;;;;;;5031836;28;20040;-64
2021/04/26 10:07:51;;;;;;;19.27;11.40;;;12.40;71.00;;;;;;5033406;28;20124;-62
2021/04/26 10:10:17;;;;;;;17.95;11.30;;;12.40;68.50;;;;;;5034798;28;20024;-61
2021/04/26 10:12:43;;;;;;;17.58;12.48;;;12.40;68.90;;;;;;5035110;28;20108;-61
2021/04/26 10:15:10;;;;;;;17.98;12.07;;;12.60;70.00;;;;;;5033825;28;20052;-63
2021/04/26 10:17:38;;;;;;;17.73;11.23;;;12.50;65.50;;;;;;5035433;28;20025;-61
2021/04/26 10:20:04;;;;;;;18.88;11.30;;;12.20;66.90;;;;;;4689909;28;9999936;-64
2021/04/26 10:22:40;;;;;;;16.27;10.65;;;12.20;66.10;;;;;;5019389;28;20030;-63
2021/04/26 10:25:07;;;;;;;16.10;11.20;;;11.90;65.50;;;;;;5027777;28;20061;-66
2021/04/26 10:27:37;;;;;;;18.88;11.20;;;12.10;66.80;;;;;;5029237;28;20030;-63
2021/04/26 10:30:06;;;;;;;18.40;11.52;;;12.30;66.90;;;;;;5009464;28;20109;-65
2021/04/26 10:33:05;;;;;;;16.55;11.40;;;12.50;67.70;;;;;;5034167;28;20017;-65
2021/04/26 10:35:46;;;;;;;16.40;10.90;;;12.30;65.20;;;;;;5043587;28;20021;-64
2021/04/26 10:38:34;;;;;;;17.83;11.90;;;12.70;66.60;;;;;;5032480;28;20625;-57
2021/04/26 10:41:00;;;;;;;17.23;11.10;;;13.00;65.40;;;;;;5031091;28;20087;-65
2021/04/26 10:43:30;;;;;;;17.73;11.27;;;13.20;66.40;;;;;;5029717;28;20037;-64
2021/04/26 10:46:14;;;;;;;17.13;11.25;;;13.20;65.50;;;;;;5032053;28;20401;-63
2021/04/26 10:49:19;;;;;;;17.52;11.18;;;12.70;63.60;;;;;;5029929;28;20021;-57
2021/04/26 10:51:45;;;;;;;18.95;10.90;;;12.50;66.50;;;;;;5024764;28;20051;-62
2021/04/26 10:54:11;;;;;;;18.52;11.05;;;12.70;63.80;;;;;;5023316;28;20018;-63
2021/04/26 10:56:36;;;;;;;19.02;11.05;;;12.70;64.70;;;;;;5014485;28;20120;-64
2021/04/26 10:59:17;;;;;;;17.20;11.50;;;13.00;65.20;;;;;;5044210;28;20446;-63
2021/04/26 11:01:51;;;;;;;17.35;11.07;;;12.90;62.80;;;;;;5042585;28;20029;-64
2021/04/26 11:04:17;;;;;;;19.70;11.48;;;13.20;64.60;;;;;;5053702;28;20047;-63
2021/04/26 11:07:02;;;;;;;17.77;11.20;;;;;;;;;;5053611;28;20047;-63
2021/04/26 11:09:38;;;;;;;20.05;12.30;;;13.50;64.30;;;;;;5053834;28;20033;-62
2021/04/26 11:12:24;;;;;;;16.98;11.45;;;;;;;;;;5052496;28;20023;-62
2021/04/26 11:14:50;;;;;;;16.05;11.38;;;15.00;63.50;;;;;;5051897;28;20025;-64
2021/04/26 11:17:25;;;;;;;16.52;11.63;;;17.00;60.10;;;;;;5052728;28;20094;-66
2021/04/26 11:20:08;;;;;;;16.83;11.23;;;18.50;55.30;;;;;;5042477;28;20510;-63
2021/04/26 11:22:35;;;;;;;17.45;12.27;;;19.10;53.80;;;;;;5025177;28;20030;-64
2021/04/26 11:25:03;;;;;;;17.88;12.60;;;19.40;53.00;;;;;;5032277;28;20044;-64
2021/04/26 11:27:29;;;;;;;19.35;12.77;;;19.90;50.70;;;;;;5033580;28;20030;-62
2021/04/26 11:29:55;;;;;;;17.17;12.60;;;;;;;;;;5031870;28;20064;-63
2021/04/26 11:32:22;;;;;;;18.27;12.10;;;;;;;;;;5031955;28;20439;-62
2021/04/26 11:34:48;;;;;;;18.98;11.85;;;;;;;;;;5033424;28;20076;-64
2021/04/26 11:37:15;;;;;;;16.90;12.73;;;;;;;;;;5032255;28;20034;-64
2021/04/26 11:39:41;;;;;;;16.63;13.07;;;;;;;;;;5032024;28;20470;-65
2021/04/26 11:42:08;;;;;;;22.63;13.95;;;;;;;;;;5032162;28;20025;-65
2021/04/26 11:44:40;;;;;;;19.10;13.40;;;;;;;;;;5031878;28;20091;-65
2021/04/26 11:47:08;;;;;;;18.17;13.73;;;;;;;;;;5031845;28;20568;-62
2021/04/26 11:49:44;;;;;;;16.10;12.63;;;;;;;;;;5033005;28;20100;-64
2021/04/26 11:52:15;;;;;;;17.17;12.50;;;;;;;;;;5034182;28;20025;-64
2021/04/26 11:54:43;;;;;;;64.05;19.08;;;;;;;;;;5021711;28;20033;-64
2021/04/26 11:57:19;;;;;;;16.55;12.48;;;;;;;;;;5012308;28;20072;-63
2021/04/26 11:59:52;;;;;;;21.10;13.18;;;;;;;;;;5013399;28;20382;-64
2021/04/26 12:02:32;;;;;;;16.67;12.75;;;;;;;;;;5012322;28;20398;-64
2021/04/26 12:05:03;;;;;;;33.92;14.60;;;;;;;;;;5012644;28;20485;-64
2021/04/26 12:07:29;;;;;;;60.22;19.90;;;;;;;;;;5012360;28;20053;-65
2021/04/26 12:09:57;;;;;;;17.60;13.25;;;20.10;50.90;;;;;;5013146;28;20026;-63
2021/04/26 12:12:29;;;;;;;18.27;12.88;;;23.90;41.30;;;;;;5013083;28;20080;-65
2021/04/26 12:14:59;;;;;;;18.23;13.20;;;;;;;;;;5013162;28;20109;-64
2021/04/26 12:17:25;;;;;;;19.58;13.95;;;25.30;40.90;;;;;;5015237;28;20026;-66
2021/04/26 12:19:51;;;;;;;16.67;13.23;;;25.20;39.60;;;;;;5040107;28;20028;-66
2021/04/26 12:22:19;;;;;;;16.25;13.30;;;26.00;40.50;;;;;;5034017;28;20053;-67
2021/04/26 12:24:46;;;;;;;17.98;13.15;;;;;;;;;;5032627;28;20045;-66
2021/04/26 12:27:13;;;;;;;17.10;13.20;;;25.80;39.40;;;;;;5031988;28;20053;-66
2021/04/26 12:29:39;;;;;;;16.58;13.30;;;25.70;40.10;;;;;;5030741;28;20057;-66
2021/04/26 12:32:16;;;;;;;18.30;13.43;;;;;;;;;;5104496;23;20048;-65
2021/04/26 12:34:54;;;;;;;20.48;13.48;;;;;;;;;;5092357;28;20472;-64
2021/04/26 12:37:21;;;;;;;17.30;13.45;;;;;;;;;;5092033;28;20081;-64
2021/04/26 12:39:48;;;;;;;17.70;13.07;;;;;;;;;;5093461;28;20035;-66
2021/04/26 12:42:18;;;;;;;16.13;13.65;;;;;;;;;;5093731;28;20032;-65
2021/04/26 12:44:44;;;;;;;17.70;13.70;;;;;;;;;;5092799;28;20082;-65
2021/04/26 12:47:21;;;;;;;17.38;13.50;;;;;;;;;;5092147;28;20024;-64
2021/04/26 12:49:48;;;;;;;17.67;13.63;;;;;;;;;;5093006;28;20016;-64
2021/04/26 12:52:16;;;;;;;16.75;13.52;;;;;;;;;;5093168;28;20024;-67
2021/04/26 12:55:01;;;;;;;19.95;14.88;;;;;;;;;;5091969;28;20020;-65
2021/04/26 12:57:27;;;;;;;19.13;13.63;;;;;;;;;;5083931;28;20395;-65
2021/04/26 12:59:54;;;;;;;16.83;13.50;;;;;;;;;;5082287;28;20028;-66
2021/04/26 13:02:20;;;;;;;16.10;13.27;;;;;;;;;;5083701;28;20028;-66
2021/04/26 13:04:47;;;;;;;18.35;13.60;;;;;;;;;;5079668;28;20020;-66
2021/04/26 13:07:13;;;;;;;16.98;13.25;;;;;;;;;;5083264;28;20098;-64